sensor_id;sensor_type;location;lat;lon;timestamp;temperature;humidity
53599;DHT22;39485;45.702;11.364;2023-06-05T00:02:23;16.00;99.90
53599;DHT22;39485;45.702;11.364;2023-06-05T00:04:49;16.00;99.90
53599;DHT22;39485;45.702;11.364;2023-06-05T00:07:15;16.00;99.90
53599;DHT22;39485;45.702;11.364;2023-06-05T00:09:41;16.00;99.90
53599;DHT22;39485;45.702;11.364;2023-06-05T00:12:07;16.00;99.90
53599;DHT22;39485;45.702;11.364;2023-06-05T00:14:33;16.00;99.90
53599;DHT22;39485;45.702;11.364;2023-06-05T00:16:58;16.00;99.90
53599;DHT22;39485;45.702;11.364;2023-06-05T00:19:24;16.00;99.90
53599;DHT22;39485;45.702;11.364;2023-06-05T00:21:50;16.00;99.90
53599;DHT22;39485;45.702;11.364;2023-06-05T00:24:16;16.00;99.90
53599;DHT22;39485;45.702;11.364;2023-06-05T00:26:42;16.00;99.90
53599;DHT22;39485;45.702;11.364;2023-06-05T00:29:07;16.00;99.90
53599;DHT22;39485;45.702;11.364;2023-06-05T00:31:33;16.00;99.90
53599;DHT22;39485;45.702;11.364;2023-06-05T00:33:59;16.10;99.90
53599;DHT22;39485;45.702;11.364;2023-06-05T00:36:25;16.10;99.90
53599;DHT22;39485;45.702;11.364;2023-06-05T00:38:51;16.10;99.90
53599;DHT22;39485;45.702;11.364;2023-06-05T00:41:17;16.10;99.90
53599;DHT22;39485;45.702;11.364;2023-06-05T00:43:42;16.10;99.90
53599;DHT22;39485;45.702;11.364;2023-06-05T00:46:08;16.10;99.90
53599;DHT22;39485;45.702;11.364;2023-06-05T00:48:36;16.10;99.90
53599;DHT22;39485;45.702;11.364;2023-06-05T00:51:03;16.10;99.90
53599;DHT22;39485;45.702;11.364;2023-06-05T00:53:30;16.10;99.90
53599;DHT22;39485;45.702;11.364;2023-06-05T00:55:56;16.10;99.90
53599;DHT22;39485;45.702;11.364;2023-06-05T00:58:22;16.10;99.90
53599;DHT22;39485;45.702;11.364;2023-06-05T01:00:48;16.10;99.90
53599;DHT22;39485;45.702;11.364;2023-06-05T01:03:15;16.10;99.90
53599;DHT22;39485;45.702;11.364;2023-06-05T01:05:42;16.10;99.90
53599;DHT22;39485;45.702;11.364;2023-06-05T01:08:09;16.10;99.90
53599;DHT22;39485;45.702;11.364;2023-06-05T01:10:38;16.10;99.90
53599;DHT22;39485;45.702;11.364;2023-06-05T01:13:19;16.10;99.90
53599;DHT22;39485;45.702;11.364;2023-06-05T01:15:47;16.10;99.90
53599;DHT22;39485;45.702;11.364;2023-06-05T01:18:13;16.10;99.90
53599;DHT22;39485;45.702;11.364;2023-06-05T01:20:40;16.10;99.90
53599;DHT22;39485;45.702;11.364;2023-06-05T01:23:07;16.00;99.90
53599;DHT22;39485;45.702;11.364;2023-06-05T01:25:34;16.00;99.90
53599;DHT22;39485;45.702;11.364;2023-06-05T01:30:36;16.00;99.90
53599;DHT22;39485;45.702;11.364;2023-06-05T01:33:09;16.00;99.90
53599;DHT22;39485;45.702;11.364;2023-06-05T01:35:38;16.00;99.90
53599;DHT22;39485;45.702;11.364;2023-06-05T01:38:06;16.00;99.90
53599;DHT22;39485;45.702;11.364;2023-06-05T01:40:33;15.90;99.90
53599;DHT22;39485;45.702;11.364;2023-06-05T01:43:00;15.90;99.90
53599;DHT22;39485;45.702;11.364;2023-06-05T01:45:26;15.90;99.90
53599;DHT22;39485;45.702;11.364;2023-06-05T01:47:52;15.90;99.90
53599;DHT22;39485;45.702;11.364;2023-06-05T01:50:19;15.80;99.90
53599;DHT22;39485;45.702;11.364;2023-06-05T01:52:45;15.80;99.90
53599;DHT22;39485;45.702;11.364;2023-06-05T01:55:17;15.60;99.90
53599;DHT22;39485;45.702;11.364;2023-06-05T01:57:45;15.70;99.90
53599;DHT22;39485;45.702;11.364;2023-06-05T02:00:11;15.70;99.90
53599;DHT22;39485;45.702;11.364;2023-06-05T02:02:45;15.70;99.90
53599;DHT22;39485;45.702;11.364;2023-06-05T02:05:11;15.70;99.90
53599;DHT22;39485;45.702;11.364;2023-06-05T02:07:45;15.70;99.90
53599;DHT22;39485;45.702;11.364;2023-06-05T02:10:14;15.70;99.90
53599;DHT22;39485;45.702;11.364;2023-06-05T02:12:40;15.70;99.90
53599;DHT22;39485;45.702;11.364;2023-06-05T02:15:08;15.70;99.90
53599;DHT22;39485;45.702;11.364;2023-06-05T02:17:39;15.60;99.90
53599;DHT22;39485;45.702;11.364;2023-06-05T02:20:05;15.60;99.90
53599;DHT22;39485;45.702;11.364;2023-06-05T02:22:31;15.60;99.90
53599;DHT22;39485;45.702;11.364;2023-06-05T02:24:56;15.60;99.90
53599;DHT22;39485;45.702;11.364;2023-06-05T02:27:22;15.60;99.90
53599;DHT22;39485;45.702;11.364;2023-06-05T02:29:50;15.50;99.90
53599;DHT22;39485;45.702;11.364;2023-06-05T02:32:16;15.50;99.90
53599;DHT22;39485;45.702;11.364;2023-06-05T02:34:42;15.50;99.90
53599;DHT22;39485;45.702;11.364;2023-06-05T02:37:07;15.50;99.90
53599;DHT22;39485;45.702;11.364;2023-06-05T02:39:33;15.50;99.90
53599;DHT22;39485;45.702;11.364;2023-06-05T02:41:59;15.50;99.90
53599;DHT22;39485;45.702;11.364;2023-06-05T02:44:25;15.50;99.90
53599;DHT22;39485;45.702;11.364;2023-06-05T02:46:51;15.50;99.90
53599;DHT22;39485;45.702;11.364;2023-06-05T02:49:17;15.50;99.90
53599;DHT22;39485;45.702;11.364;2023-06-05T02:51:42;15.40;99.90
53599;DHT22;39485;45.702;11.364;2023-06-05T02:54:08;15.40;99.90
53599;DHT22;39485;45.702;11.364;2023-06-05T02:56:34;15.50;99.90
53599;DHT22;39485;45.702;11.364;2023-06-05T02:59:00;15.50;99.90
53599;DHT22;39485;45.702;11.364;2023-06-05T03:01:27;15.50;99.90
53599;DHT22;39485;45.702;11.364;2023-06-05T03:04:02;15.50;99.90
53599;DHT22;39485;45.702;11.364;2023-06-05T03:06:29;15.40;99.90
53599;DHT22;39485;45.702;11.364;2023-06-05T03:08:59;15.50;99.90
53599;DHT22;39485;45.702;11.364;2023-06-05T03:11:25;15.50;99.90
53599;DHT22;39485;45.702;11.364;2023-06-05T03:13:52;15.50;99.90
53599;DHT22;39485;45.702;11.364;2023-06-05T03:16:17;15.50;99.90
53599;DHT22;39485;45.702;11.364;2023-06-05T03:18:44;15.50;99.90
53599;DHT22;39485;45.702;11.364;2023-06-05T03:21:11;15.50;99.90
53599;DHT22;39485;45.702;11.364;2023-06-05T03:23:37;15.50;99.90
53599;DHT22;39485;45.702;11.364;2023-06-05T03:26:03;15.50;99.90
53599;DHT22;39485;45.702;11.364;2023-06-05T03:28:29;15.50;99.90
53599;DHT22;39485;45.702;11.364;2023-06-05T03:30:56;15.50;99.90
53599;DHT22;39485;45.702;11.364;2023-06-05T03:33:21;15.50;99.90
53599;DHT22;39485;45.702;11.364;2023-06-05T03:35:47;15.50;99.90
53599;DHT22;39485;45.702;11.364;2023-06-05T03:38:14;15.50;99.90
53599;DHT22;39485;45.702;11.364;2023-06-05T03:40:40;15.50;99.90
53599;DHT22;39485;45.702;11.364;2023-06-05T03:43:07;15.50;99.90
53599;DHT22;39485;45.702;11.364;2023-06-05T03:45:36;15.50;99.90
53599;DHT22;39485;45.702;11.364;2023-06-05T03:48:04;15.50;99.90
53599;DHT22;39485;45.702;11.364;2023-06-05T03:50:29;15.50;99.90
53599;DHT22;39485;45.702;11.364;2023-06-05T03:52:57;15.50;99.90
53599;DHT22;39485;45.702;11.364;2023-06-05T03:55:36;15.50;99.90
53599;DHT22;39485;45.702;11.364;2023-06-05T03:58:14;15.50;99.90
53599;DHT22;39485;45.702;11.364;2023-06-05T04:00:46;15.50;99.90
53599;DHT22;39485;45.702;11.364;2023-06-05T04:03:14;15.50;99.90
53599;DHT22;39485;45.702;11.364;2023-06-05T04:05:41;15.50;99.90
53599;DHT22;39485;45.702;11.364;2023-06-05T04:08:10;15.50;99.90
53599;DHT22;39485;45.702;11.364;2023-06-05T04:10:37;15.50;99.90
53599;DHT22;39485;45.702;11.364;2023-06-05T04:13:03;15.50;99.90
53599;DHT22;39485;45.702;11.364;2023-06-05T04:15:29;15.50;99.90
53599;DHT22;39485;45.702;11.364;2023-06-05T04:17:55;15.50;99.90
53599;DHT22;39485;45.702;11.364;2023-06-05T04:20:21;15.50;99.90
53599;DHT22;39485;45.702;11.364;2023-06-05T04:22:47;15.40;99.90
53599;DHT22;39485;45.702;11.364;2023-06-05T04:25:14;15.40;99.90
53599;DHT22;39485;45.702;11.364;2023-06-05T04:27:40;15.40;99.90
53599;DHT22;39485;45.702;11.364;2023-06-05T04:30:07;15.40;99.90
53599;DHT22;39485;45.702;11.364;2023-06-05T04:32:34;15.40;99.90
53599;DHT22;39485;45.702;11.364;2023-06-05T04:35:03;15.40;99.90
53599;DHT22;39485;45.702;11.364;2023-06-05T04:37:28;15.40;99.90
53599;DHT22;39485;45.702;11.364;2023-06-05T04:39:54;15.40;99.90
53599;DHT22;39485;45.702;11.364;2023-06-05T04:42:21;15.40;99.90
53599;DHT22;39485;45.702;11.364;2023-06-05T04:45:01;15.40;99.90
53599;DHT22;39485;45.702;11.364;2023-06-05T04:47:28;15.40;99.90
53599;DHT22;39485;45.702;11.364;2023-06-05T04:49:54;15.40;99.90
53599;DHT22;39485;45.702;11.364;2023-06-05T04:52:21;15.50;99.90
53599;DHT22;39485;45.702;11.364;2023-06-05T04:54:47;15.40;99.90
53599;DHT22;39485;45.702;11.364;2023-06-05T04:57:13;15.50;99.90
53599;DHT22;39485;45.702;11.364;2023-06-05T04:59:38;15.50;99.90
53599;DHT22;39485;45.702;11.364;2023-06-05T05:02:05;15.50;99.90
53599;DHT22;39485;45.702;11.364;2023-06-05T05:04:31;15.50;99.90
53599;DHT22;39485;45.702;11.364;2023-06-05T05:06:56;15.50;99.90
53599;DHT22;39485;45.702;11.364;2023-06-05T05:09:30;15.50;99.90
53599;DHT22;39485;45.702;11.364;2023-06-05T05:11:56;15.50;99.90
53599;DHT22;39485;45.702;11.364;2023-06-05T05:14:23;15.60;99.90
53599;DHT22;39485;45.702;11.364;2023-06-05T05:16:50;15.60;99.90
53599;DHT22;39485;45.702;11.364;2023-06-05T05:19:15;15.60;99.90
53599;DHT22;39485;45.702;11.364;2023-06-05T05:21:41;15.60;99.90
53599;DHT22;39485;45.702;11.364;2023-06-05T05:24:07;15.60;99.90
53599;DHT22;39485;45.702;11.364;2023-06-05T05:26:33;15.60;99.90
53599;DHT22;39485;45.702;11.364;2023-06-05T05:28:59;15.60;99.90
53599;DHT22;39485;45.702;11.364;2023-06-05T05:31:25;15.70;99.90
53599;DHT22;39485;45.702;11.364;2023-06-05T05:33:50;15.70;99.90
53599;DHT22;39485;45.702;11.364;2023-06-05T05:36:16;15.70;99.90
53599;DHT22;39485;45.702;11.364;2023-06-05T05:38:42;15.70;99.90
53599;DHT22;39485;45.702;11.364;2023-06-05T05:41:07;15.70;99.90
53599;DHT22;39485;45.702;11.364;2023-06-05T05:43:33;15.70;99.90
53599;DHT22;39485;45.702;11.364;2023-06-05T05:45:58;15.70;99.90
53599;DHT22;39485;45.702;11.364;2023-06-05T05:48:24;15.80;99.90
53599;DHT22;39485;45.702;11.364;2023-06-05T05:50:50;15.80;99.90
53599;DHT22;39485;45.702;11.364;2023-06-05T05:53:16;15.70;99.90
53599;DHT22;39485;45.702;11.364;2023-06-05T05:55:41;15.70;99.90
53599;DHT22;39485;45.702;11.364;2023-06-05T05:58:07;15.70;99.90
53599;DHT22;39485;45.702;11.364;2023-06-05T06:00:33;15.70;99.90
53599;DHT22;39485;45.702;11.364;2023-06-05T06:03:00;15.70;99.90
53599;DHT22;39485;45.702;11.364;2023-06-05T06:05:25;15.70;99.90
53599;DHT22;39485;45.702;11.364;2023-06-05T06:07:51;15.70;99.90
53599;DHT22;39485;45.702;11.364;2023-06-05T06:10:17;15.80;99.90
53599;DHT22;39485;45.702;11.364;2023-06-05T06:12:44;15.80;99.90
53599;DHT22;39485;45.702;11.364;2023-06-05T06:15:10;15.80;99.90
53599;DHT22;39485;45.702;11.364;2023-06-05T06:17:37;15.80;99.90
53599;DHT22;39485;45.702;11.364;2023-06-05T06:20:04;15.80;99.90
53599;DHT22;39485;45.702;11.364;2023-06-05T06:22:31;15.80;99.90
53599;DHT22;39485;45.702;11.364;2023-06-05T06:24:56;15.80;99.90
53599;DHT22;39485;45.702;11.364;2023-06-05T06:27:22;15.80;99.90
53599;DHT22;39485;45.702;11.364;2023-06-05T06:29:51;15.90;99.90
53599;DHT22;39485;45.702;11.364;2023-06-05T06:32:21;15.90;99.90
53599;DHT22;39485;45.702;11.364;2023-06-05T06:34:47;15.90;99.90
53599;DHT22;39485;45.702;11.364;2023-06-05T06:37:14;15.90;99.90
53599;DHT22;39485;45.702;11.364;2023-06-05T06:39:42;16.00;99.90
53599;DHT22;39485;45.702;11.364;2023-06-05T06:42:11;16.00;99.90
53599;DHT22;39485;45.702;11.364;2023-06-05T06:44:38;16.00;99.90
53599;DHT22;39485;45.702;11.364;2023-06-05T06:47:04;16.10;99.90
53599;DHT22;39485;45.702;11.364;2023-06-05T06:49:30;16.10;99.90
53599;DHT22;39485;45.702;11.364;2023-06-05T06:51:56;16.20;99.90
53599;DHT22;39485;45.702;11.364;2023-06-05T06:54:22;16.30;99.90
53599;DHT22;39485;45.702;11.364;2023-06-05T06:56:48;16.20;99.90
53599;DHT22;39485;45.702;11.364;2023-06-05T06:59:15;16.30;99.90
53599;DHT22;39485;45.702;11.364;2023-06-05T07:01:46;16.30;99.90
53599;DHT22;39485;45.702;11.364;2023-06-05T07:04:16;16.40;99.90
53599;DHT22;39485;45.702;11.364;2023-06-05T07:06:48;16.40;99.90
53599;DHT22;39485;45.702;11.364;2023-06-05T07:09:14;16.40;99.90
53599;DHT22;39485;45.702;11.364;2023-06-05T07:11:40;16.40;99.90
53599;DHT22;39485;45.702;11.364;2023-06-05T07:14:06;16.50;99.90
53599;DHT22;39485;45.702;11.364;2023-06-05T07:16:33;16.50;99.90
53599;DHT22;39485;45.702;11.364;2023-06-05T07:18:58;16.50;99.90
53599;DHT22;39485;45.702;11.364;2023-06-05T07:21:24;16.60;99.90
53599;DHT22;39485;45.702;11.364;2023-06-05T07:23:51;16.60;99.90
53599;DHT22;39485;45.702;11.364;2023-06-05T07:26:19;16.60;99.90
53599;DHT22;39485;45.702;11.364;2023-06-05T07:28:45;16.70;99.90
53599;DHT22;39485;45.702;11.364;2023-06-05T07:31:13;16.70;99.90
53599;DHT22;39485;45.702;11.364;2023-06-05T07:33:38;16.80;99.90
53599;DHT22;39485;45.702;11.364;2023-06-05T07:36:04;16.90;99.90
53599;DHT22;39485;45.702;11.364;2023-06-05T07:38:30;16.90;99.90
53599;DHT22;39485;45.702;11.364;2023-06-05T07:40:57;17.00;99.90
53599;DHT22;39485;45.702;11.364;2023-06-05T07:43:27;17.10;99.90
53599;DHT22;39485;45.702;11.364;2023-06-05T07:45:52;17.10;99.90
53599;DHT22;39485;45.702;11.364;2023-06-05T07:48:18;17.10;99.90
53599;DHT22;39485;45.702;11.364;2023-06-05T07:50:44;17.20;99.90
53599;DHT22;39485;45.702;11.364;2023-06-05T07:53:10;17.20;99.90
53599;DHT22;39485;45.702;11.364;2023-06-05T07:55:36;17.20;99.90
53599;DHT22;39485;45.702;11.364;2023-06-05T07:58:02;17.20;99.90
53599;DHT22;39485;45.702;11.364;2023-06-05T08:00:28;17.20;99.90
53599;DHT22;39485;45.702;11.364;2023-06-05T08:02:54;17.20;99.90
53599;DHT22;39485;45.702;11.364;2023-06-05T08:05:20;17.30;99.90
53599;DHT22;39485;45.702;11.364;2023-06-05T08:07:46;17.30;99.90
53599;DHT22;39485;45.702;11.364;2023-06-05T08:10:12;17.30;99.90
53599;DHT22;39485;45.702;11.364;2023-06-05T08:12:38;17.30;99.90
53599;DHT22;39485;45.702;11.364;2023-06-05T08:15:05;17.30;99.90
53599;DHT22;39485;45.702;11.364;2023-06-05T08:17:31;17.30;99.90
53599;DHT22;39485;45.702;11.364;2023-06-05T08:19:57;17.40;99.90
53599;DHT22;39485;45.702;11.364;2023-06-05T08:22:23;17.40;99.90
53599;DHT22;39485;45.702;11.364;2023-06-05T08:24:48;17.50;99.90
53599;DHT22;39485;45.702;11.364;2023-06-05T08:27:18;17.50;99.90
53599;DHT22;39485;45.702;11.364;2023-06-05T08:29:44;17.50;99.90
53599;DHT22;39485;45.702;11.364;2023-06-05T08:32:10;17.50;99.90
53599;DHT22;39485;45.702;11.364;2023-06-05T08:34:36;17.50;99.90
53599;DHT22;39485;45.702;11.364;2023-06-05T08:37:01;17.40;99.90
53599;DHT22;39485;45.702;11.364;2023-06-05T08:39:28;17.40;99.90
53599;DHT22;39485;45.702;11.364;2023-06-05T08:42:00;17.40;99.90
53599;DHT22;39485;45.702;11.364;2023-06-05T08:44:29;17.40;99.90
53599;DHT22;39485;45.702;11.364;2023-06-05T08:47:02;17.50;99.90
53599;DHT22;39485;45.702;11.364;2023-06-05T08:49:28;17.40;99.90
53599;DHT22;39485;45.702;11.364;2023-06-05T08:52:01;17.50;99.90
53599;DHT22;39485;45.702;11.364;2023-06-05T08:54:32;17.60;99.90
53599;DHT22;39485;45.702;11.364;2023-06-05T08:57:00;17.60;99.90
53599;DHT22;39485;45.702;11.364;2023-06-05T08:59:28;17.70;99.90
53599;DHT22;39485;45.702;11.364;2023-06-05T09:01:55;17.70;99.90
53599;DHT22;39485;45.702;11.364;2023-06-05T09:04:21;17.70;99.90
53599;DHT22;39485;45.702;11.364;2023-06-05T09:06:47;17.80;99.90
53599;DHT22;39485;45.702;11.364;2023-06-05T09:09:14;17.80;99.90
53599;DHT22;39485;45.702;11.364;2023-06-05T09:11:40;17.90;99.90
53599;DHT22;39485;45.702;11.364;2023-06-05T09:14:06;17.90;99.90
53599;DHT22;39485;45.702;11.364;2023-06-05T09:16:40;17.90;99.90
53599;DHT22;39485;45.702;11.364;2023-06-05T09:19:08;17.80;99.90
53599;DHT22;39485;45.702;11.364;2023-06-05T09:21:35;17.80;99.90
53599;DHT22;39485;45.702;11.364;2023-06-05T09:24:20;17.90;99.90
53599;DHT22;39485;45.702;11.364;2023-06-05T09:29:19;18.00;99.90
53599;DHT22;39485;45.702;11.364;2023-06-05T09:31:45;18.10;99.90
53599;DHT22;39485;45.702;11.364;2023-06-05T09:34:11;18.10;99.90
53599;DHT22;39485;45.702;11.364;2023-06-05T09:36:46;18.10;99.90
53599;DHT22;39485;45.702;11.364;2023-06-05T09:39:15;18.20;99.90
53599;DHT22;39485;45.702;11.364;2023-06-05T09:41:46;18.30;99.90
53599;DHT22;39485;45.702;11.364;2023-06-05T09:44:12;18.30;99.90
53599;DHT22;39485;45.702;11.364;2023-06-05T09:46:53;18.40;99.90
53599;DHT22;39485;45.702;11.364;2023-06-05T09:49:19;18.40;99.90
53599;DHT22;39485;45.702;11.364;2023-06-05T09:51:46;18.40;99.90
53599;DHT22;39485;45.702;11.364;2023-06-05T09:54:13;18.40;99.90
53599;DHT22;39485;45.702;11.364;2023-06-05T09:56:46;18.40;99.90
53599;DHT22;39485;45.702;11.364;2023-06-05T09:59:20;18.40;99.90
53599;DHT22;39485;45.702;11.364;2023-06-05T10:01:51;18.50;99.90
53599;DHT22;39485;45.702;11.364;2023-06-05T10:04:23;18.50;99.90
53599;DHT22;39485;45.702;11.364;2023-06-05T10:06:51;18.70;99.90
53599;DHT22;39485;45.702;11.364;2023-06-05T10:09:18;18.60;99.90
53599;DHT22;39485;45.702;11.364;2023-06-05T10:11:50;18.70;99.90
53599;DHT22;39485;45.702;11.364;2023-06-05T10:14:16;18.80;99.90
53599;DHT22;39485;45.702;11.364;2023-06-05T10:16:43;18.90;99.90
53599;DHT22;39485;45.702;11.364;2023-06-05T10:19:11;18.90;99.90
53599;DHT22;39485;45.702;11.364;2023-06-05T10:21:37;18.90;99.90
53599;DHT22;39485;45.702;11.364;2023-06-05T10:24:06;18.80;99.90
53599;DHT22;39485;45.702;11.364;2023-06-05T10:26:54;18.90;99.90
53599;DHT22;39485;45.702;11.364;2023-06-05T10:32:16;18.80;99.90
53599;DHT22;39485;45.702;11.364;2023-06-05T10:37:59;18.80;99.90
53599;DHT22;39485;45.702;11.364;2023-06-05T10:40:33;18.80;99.90
53599;DHT22;39485;45.702;11.364;2023-06-05T10:45:57;18.80;99.90
53599;DHT22;39485;45.702;11.364;2023-06-05T10:54:05;18.90;99.90
53599;DHT22;39485;45.702;11.364;2023-06-05T12:15:23;19.30;99.90
53599;DHT22;39485;45.702;11.364;2023-06-05T12:17:50;19.30;99.90
53599;DHT22;39485;45.702;11.364;2023-06-05T12:20:17;19.40;99.90
53599;DHT22;39485;45.702;11.364;2023-06-05T12:22:43;19.40;99.90
53599;DHT22;39485;45.702;11.364;2023-06-05T12:25:18;19.40;99.90
53599;DHT22;39485;45.702;11.364;2023-06-05T12:27:44;19.40;99.90
53599;DHT22;39485;45.702;11.364;2023-06-05T12:30:14;19.40;99.90
53599;DHT22;39485;45.702;11.364;2023-06-05T12:32:42;19.50;99.90
53599;DHT22;39485;45.702;11.364;2023-06-05T12:35:24;19.50;99.90
53599;DHT22;39485;45.702;11.364;2023-06-05T12:37:51;19.50;99.90
53599;DHT22;39485;45.702;11.364;2023-06-05T12:40:18;19.50;99.90
53599;DHT22;39485;45.702;11.364;2023-06-05T12:42:47;19.50;99.90
53599;DHT22;39485;45.702;11.364;2023-06-05T12:45:14;19.60;99.90
53599;DHT22;39485;45.702;11.364;2023-06-05T12:47:41;19.60;99.90
53599;DHT22;39485;45.702;11.364;2023-06-05T12:50:08;19.60;99.90
53599;DHT22;39485;45.702;11.364;2023-06-05T12:52:38;19.70;99.90
53599;DHT22;39485;45.702;11.364;2023-06-05T12:55:04;19.70;99.90
53599;DHT22;39485;45.702;11.364;2023-06-05T12:57:31;19.60;99.90
53599;DHT22;39485;45.702;11.364;2023-06-05T12:59:57;19.70;99.90
53599;DHT22;39485;45.702;11.364;2023-06-05T13:02:24;19.70;99.90
53599;DHT22;39485;45.702;11.364;2023-06-05T13:04:50;19.70;99.90
53599;DHT22;39485;45.702;11.364;2023-06-05T13:07:15;19.80;99.90
53599;DHT22;39485;45.702;11.364;2023-06-05T13:09:47;19.90;99.90
53599;DHT22;39485;45.702;11.364;2023-06-05T13:12:12;19.90;99.90
53599;DHT22;39485;45.702;11.364;2023-06-05T13:14:38;19.90;99.90
53599;DHT22;39485;45.702;11.364;2023-06-05T13:17:04;19.90;99.90
53599;DHT22;39485;45.702;11.364;2023-06-05T13:19:30;19.90;99.90
53599;DHT22;39485;45.702;11.364;2023-06-05T13:21:55;19.90;99.90
53599;DHT22;39485;45.702;11.364;2023-06-05T13:24:21;19.90;99.90
53599;DHT22;39485;45.702;11.364;2023-06-05T13:26:47;19.90;99.90
53599;DHT22;39485;45.702;11.364;2023-06-05T13:29:12;19.80;99.90
53599;DHT22;39485;45.702;11.364;2023-06-05T13:31:39;19.90;99.90
53599;DHT22;39485;45.702;11.364;2023-06-05T13:34:05;19.90;99.90
53599;DHT22;39485;45.702;11.364;2023-06-05T13:36:31;19.90;99.90
53599;DHT22;39485;45.702;11.364;2023-06-05T13:38:57;19.90;99.90
53599;DHT22;39485;45.702;11.364;2023-06-05T13:41:23;19.80;99.90
53599;DHT22;39485;45.702;11.364;2023-06-05T13:43:48;19.80;99.90
53599;DHT22;39485;45.702;11.364;2023-06-05T13:46:14;19.80;99.90
53599;DHT22;39485;45.702;11.364;2023-06-05T13:48:40;19.80;99.90
53599;DHT22;39485;45.702;11.364;2023-06-05T13:51:05;19.80;99.90
53599;DHT22;39485;45.702;11.364;2023-06-05T13:53:31;19.80;99.90
53599;DHT22;39485;45.702;11.364;2023-06-05T13:56:10;19.90;99.90
53599;DHT22;39485;45.702;11.364;2023-06-05T13:58:35;19.90;99.90
53599;DHT22;39485;45.702;11.364;2023-06-05T14:01:01;19.90;99.90
53599;DHT22;39485;45.702;11.364;2023-06-05T14:03:27;19.90;99.90
53599;DHT22;39485;45.702;11.364;2023-06-05T14:05:53;19.90;99.90
53599;DHT22;39485;45.702;11.364;2023-06-05T14:08:19;20.00;99.90
53599;DHT22;39485;45.702;11.364;2023-06-05T14:10:45;20.00;99.90
53599;DHT22;39485;45.702;11.364;2023-06-05T14:13:12;20.00;99.90
53599;DHT22;39485;45.702;11.364;2023-06-05T14:15:38;20.00;99.90
53599;DHT22;39485;45.702;11.364;2023-06-05T14:18:05;20.00;99.90
53599;DHT22;39485;45.702;11.364;2023-06-05T14:20:31;20.00;99.90
53599;DHT22;39485;45.702;11.364;2023-06-05T14:22:58;20.00;99.90
53599;DHT22;39485;45.702;11.364;2023-06-05T14:25:24;20.10;99.90
53599;DHT22;39485;45.702;11.364;2023-06-05T14:27:54;20.10;99.90
53599;DHT22;39485;45.702;11.364;2023-06-05T14:30:21;20.20;99.90
53599;DHT22;39485;45.702;11.364;2023-06-05T14:32:47;20.20;99.90
53599;DHT22;39485;45.702;11.364;2023-06-05T14:35:13;20.20;99.90
53599;DHT22;39485;45.702;11.364;2023-06-05T14:37:39;20.20;99.90
53599;DHT22;39485;45.702;11.364;2023-06-05T14:40:05;20.20;99.90
53599;DHT22;39485;45.702;11.364;2023-06-05T14:42:31;20.10;99.90
53599;DHT22;39485;45.702;11.364;2023-06-05T14:44:57;20.10;99.90
53599;DHT22;39485;45.702;11.364;2023-06-05T14:47:22;20.10;99.90
53599;DHT22;39485;45.702;11.364;2023-06-05T14:49:49;20.20;99.90
53599;DHT22;39485;45.702;11.364;2023-06-05T14:52:15;20.20;99.90
53599;DHT22;39485;45.702;11.364;2023-06-05T14:54:41;20.30;99.90
53599;DHT22;39485;45.702;11.364;2023-06-05T14:57:07;20.20;99.90
53599;DHT22;39485;45.702;11.364;2023-06-05T14:59:33;20.30;99.90
53599;DHT22;39485;45.702;11.364;2023-06-05T15:01:59;20.30;99.90
53599;DHT22;39485;45.702;11.364;2023-06-05T15:04:25;20.30;99.90
53599;DHT22;39485;45.702;11.364;2023-06-05T15:06:51;20.30;99.90
53599;DHT22;39485;45.702;11.364;2023-06-05T15:09:19;20.20;99.90
53599;DHT22;39485;45.702;11.364;2023-06-05T15:11:45;20.20;99.90
53599;DHT22;39485;45.702;11.364;2023-06-05T15:14:11;20.20;99.90
53599;DHT22;39485;45.702;11.364;2023-06-05T15:16:37;20.20;99.90
53599;DHT22;39485;45.702;11.364;2023-06-05T15:19:03;20.20;99.90
53599;DHT22;39485;45.702;11.364;2023-06-05T15:21:30;20.20;99.90
53599;DHT22;39485;45.702;11.364;2023-06-05T15:23:55;20.20;99.90
53599;DHT22;39485;45.702;11.364;2023-06-05T15:26:21;20.20;99.90
53599;DHT22;39485;45.702;11.364;2023-06-05T15:28:47;20.20;99.90
53599;DHT22;39485;45.702;11.364;2023-06-05T15:31:13;20.20;99.90
53599;DHT22;39485;45.702;11.364;2023-06-05T15:33:39;20.20;99.90
53599;DHT22;39485;45.702;11.364;2023-06-05T15:36:05;20.20;99.90
53599;DHT22;39485;45.702;11.364;2023-06-05T15:38:31;20.10;99.90
53599;DHT22;39485;45.702;11.364;2023-06-05T15:40:57;20.10;99.90
53599;DHT22;39485;45.702;11.364;2023-06-05T15:43:23;20.00;99.90
53599;DHT22;39485;45.702;11.364;2023-06-05T15:45:48;20.00;99.90
53599;DHT22;39485;45.702;11.364;2023-06-05T15:48:15;20.00;99.90
53599;DHT22;39485;45.702;11.364;2023-06-05T15:50:41;20.00;99.90
53599;DHT22;39485;45.702;11.364;2023-06-05T15:53:06;20.00;99.90
53599;DHT22;39485;45.702;11.364;2023-06-05T15:55:33;20.00;99.90
53599;DHT22;39485;45.702;11.364;2023-06-05T15:58:03;20.00;99.90
53599;DHT22;39485;45.702;11.364;2023-06-05T16:00:29;19.90;99.90
53599;DHT22;39485;45.702;11.364;2023-06-05T16:02:55;19.90;99.90
53599;DHT22;39485;45.702;11.364;2023-06-05T16:05:21;19.90;99.90
53599;DHT22;39485;45.702;11.364;2023-06-05T16:07:47;19.80;99.90
53599;DHT22;39485;45.702;11.364;2023-06-05T16:10:13;19.80;99.90
53599;DHT22;39485;45.702;11.364;2023-06-05T16:12:38;19.80;99.90
53599;DHT22;39485;45.702;11.364;2023-06-05T16:15:04;19.80;99.90
53599;DHT22;39485;45.702;11.364;2023-06-05T16:17:30;19.80;99.90
53599;DHT22;39485;45.702;11.364;2023-06-05T16:19:56;19.80;99.90
53599;DHT22;39485;45.702;11.364;2023-06-05T16:22:22;19.70;99.90
53599;DHT22;39485;45.702;11.364;2023-06-05T16:24:48;19.70;99.90
53599;DHT22;39485;45.702;11.364;2023-06-05T16:27:14;19.70;99.90
53599;DHT22;39485;45.702;11.364;2023-06-05T16:29:40;19.70;99.90
53599;DHT22;39485;45.702;11.364;2023-06-05T16:32:07;19.60;99.90
53599;DHT22;39485;45.702;11.364;2023-06-05T16:34:32;19.60;99.90
53599;DHT22;39485;45.702;11.364;2023-06-05T16:36:58;19.50;99.90
53599;DHT22;39485;45.702;11.364;2023-06-05T16:39:24;19.50;99.90
53599;DHT22;39485;45.702;11.364;2023-06-05T16:41:49;19.50;99.90
53599;DHT22;39485;45.702;11.364;2023-06-05T16:44:15;19.50;99.90
53599;DHT22;39485;45.702;11.364;2023-06-05T16:46:43;19.50;99.90
53599;DHT22;39485;45.702;11.364;2023-06-05T16:49:09;19.40;99.90
53599;DHT22;39485;45.702;11.364;2023-06-05T16:51:34;19.40;99.90
53599;DHT22;39485;45.702;11.364;2023-06-05T16:54:00;19.40;99.90